createdAt,value
2023-03-26T00:01:25.476Z,4.40
2023-03-26T00:03:54.773Z,3.80
2023-03-26T00:06:23.844Z,3.90
2023-03-26T00:08:51.897Z,3.80
2023-03-26T00:11:21.630Z,3.80
2023-03-26T00:13:48.844Z,3.70
2023-03-26T00:16:18.110Z,3.70
2023-03-26T00:18:46.103Z,3.60
2023-03-26T00:21:15.030Z,3.60
2023-03-26T00:23:43.220Z,4.30
2023-03-26T00:26:10.878Z,4.10
2023-03-26T00:28:40.431Z,3.50
2023-03-26T00:31:10.007Z,3.60
2023-03-26T00:33:38.539Z,5.80
2023-03-26T00:36:10.219Z,3.60
2023-03-26T00:38:39.292Z,3.60
2023-03-26T00:41:18.054Z,3.60
2023-03-26T00:43:46.687Z,3.50
2023-03-26T00:46:13.930Z,3.60
2023-03-26T00:48:45.793Z,3.90
2023-03-26T00:51:17.968Z,3.60
2023-03-26T00:53:46.756Z,3.60
2023-03-26T00:56:13.985Z,3.60
2023-03-26T00:58:40.859Z,3.60
2023-03-26T01:01:14.335Z,3.50
2023-03-26T01:03:50.378Z,2.40
2023-03-26T01:06:32.839Z,3.50
2023-03-26T01:09:05.656Z,3.50
2023-03-26T01:11:34.793Z,3.50
2023-03-26T01:14:08.637Z,3.50
2023-03-26T01:16:45.042Z,4.30
2023-03-26T01:19:56.221Z,3.50
2023-03-26T01:22:25.718Z,3.40
2023-03-26T01:24:54.233Z,3.40
2023-03-26T01:27:28.957Z,3.40
2023-03-26T01:30:17.231Z,3.30
2023-03-26T01:33:03.498Z,3.30
2023-03-26T01:35:49.888Z,3.30
2023-03-26T01:38:52.252Z,3.30
2023-03-26T01:41:39.369Z,3.30
2023-03-26T01:44:06.154Z,3.30
2023-03-26T01:46:36.381Z,3.30
2023-03-26T01:49:13.303Z,3.30
2023-03-26T01:51:42.491Z,3.30
2023-03-26T01:54:16.114Z,3.30
2023-03-26T01:56:48.608Z,3.20
2023-03-26T01:59:37.119Z,3.20
2023-03-26T02:02:17.247Z,3.20
2023-03-26T02:05:02.934Z,3.20
2023-03-26T02:07:47.976Z,3.20
2023-03-26T02:10:23.193Z,3.20
2023-03-26T02:12:51.136Z,3.20
2023-03-26T02:15:18.006Z,3.20
2023-03-26T02:17:44.915Z,3.10
2023-03-26T02:20:14.601Z,3.10
2023-03-26T02:22:45.991Z,3.10
2023-03-26T02:25:16.096Z,3.10
2023-03-26T02:27:43.700Z,3.20
2023-03-26T02:30:15.541Z,3.10
2023-03-26T02:32:43.985Z,3.10
2023-03-26T02:35:12.373Z,3.10
2023-03-26T02:37:39.766Z,3.10
2023-03-26T02:40:11.260Z,3.00
2023-03-26T02:42:39.088Z,3.10
2023-03-26T02:45:07.408Z,3.10
2023-03-26T02:47:34.874Z,3.00
2023-03-26T02:50:03.753Z,3.00
2023-03-26T02:52:30.892Z,4.30
2023-03-26T02:54:57.912Z,2.90
2023-03-26T02:57:26.094Z,3.00
2023-03-26T02:59:53.244Z,3.00
2023-03-26T03:02:20.672Z,4.60
2023-03-26T03:04:47.578Z,2.90
2023-03-26T03:07:17.947Z,2.90
2023-03-26T03:09:44.937Z,2.90
2023-03-26T03:12:11.777Z,2.90
2023-03-26T03:14:38.605Z,2.90
2023-03-26T03:17:05.762Z,2.90
2023-03-26T03:19:32.605Z,2.90
2023-03-26T03:21:59.733Z,2.90
2023-03-26T03:24:27.291Z,2.90
2023-03-26T03:26:56.964Z,2.90
2023-03-26T03:29:24.073Z,2.90
2023-03-26T03:31:51.103Z,2.90
2023-03-26T03:34:17.927Z,2.90
2023-03-26T03:36:48.785Z,2.90
2023-03-26T03:39:16.324Z,3.00
2023-03-26T03:41:43.176Z,3.40
2023-03-26T03:44:10.363Z,2.80
2023-03-26T03:46:37.223Z,2.80
2023-03-26T03:49:04.110Z,2.80
2023-03-26T03:51:31.380Z,2.80
2023-03-26T03:53:58.364Z,2.80
2023-03-26T03:56:26.298Z,2.70
2023-03-26T03:58:53.233Z,2.70
2023-03-26T04:01:22.974Z,2.80
2023-03-26T04:03:50.404Z,2.70
2023-03-26T04:06:20.522Z,2.60
2023-03-26T04:08:47.480Z,2.60
2023-03-26T04:11:14.564Z,2.60
2023-03-26T04:13:41.481Z,2.60
2023-03-26T04:16:09.604Z,2.60
2023-03-26T04:18:37.647Z,2.60
2023-03-26T04:21:07.650Z,2.60
2023-03-26T04:23:34.545Z,2.70
2023-03-26T04:26:05.327Z,2.70
2023-03-26T04:28:46.534Z,2.70
2023-03-26T04:31:16.773Z,2.70
2023-03-26T04:33:47.968Z,2.80
2023-03-26T04:36:16.515Z,2.70
2023-03-26T04:38:52.158Z,2.60
2023-03-26T04:41:19.255Z,2.60
2023-03-26T04:43:50.817Z,2.60
2023-03-26T04:46:18.703Z,2.60
2023-03-26T04:48:45.780Z,2.60
2023-03-26T04:51:22.131Z,2.60
2023-03-26T04:53:54.760Z,2.60
2023-03-26T04:56:49.926Z,2.50
2023-03-26T04:59:26.350Z,2.50
2023-03-26T05:01:53.646Z,2.50
2023-03-26T05:04:20.529Z,2.50
2023-03-26T05:06:47.483Z,2.60
2023-03-26T05:09:14.488Z,2.40
2023-03-26T05:11:41.704Z,2.40
2023-03-26T05:14:09.586Z,2.40
2023-03-26T05:16:37.417Z,2.30
2023-03-26T05:19:04.337Z,2.30
2023-03-26T05:21:31.405Z,2.30
2023-03-26T05:23:58.239Z,2.30
2023-03-26T05:26:25.213Z,2.30
2023-03-26T05:28:52.710Z,2.30
2023-03-26T05:31:21.382Z,2.20
2023-03-26T05:33:48.727Z,2.30
2023-03-26T05:36:17.281Z,2.20
2023-03-26T05:38:47.667Z,2.30
2023-03-26T05:41:14.458Z,2.30
2023-03-26T05:43:41.291Z,2.30
2023-03-26T05:46:08.371Z,4.00
2023-03-26T05:48:35.667Z,2.40
2023-03-26T05:51:02.494Z,2.30
2023-03-26T05:53:29.371Z,2.20
2023-03-26T05:55:59.522Z,2.20
2023-03-26T05:58:28.174Z,2.10
2023-03-26T06:01:00.340Z,2.10
2023-03-26T06:03:28.765Z,2.10
2023-03-26T06:05:56.368Z,2.00
2023-03-26T06:08:23.712Z,2.10
2023-03-26T06:10:51.094Z,2.10
2023-03-26T06:13:19.161Z,2.10
2023-03-26T06:15:46.211Z,2.10
2023-03-26T06:18:13.162Z,2.20
2023-03-26T06:20:42.089Z,2.30
2023-03-26T06:23:09.562Z,2.30
2023-03-26T06:25:37.640Z,2.20
2023-03-26T06:28:04.743Z,2.10
2023-03-26T06:30:31.650Z,2.20
2023-03-26T06:32:58.715Z,3.30
2023-03-26T06:35:25.949Z,2.20
2023-03-26T06:37:52.703Z,2.20
2023-03-26T06:40:19.624Z,2.30
2023-03-26T06:43:08.342Z,2.30
2023-03-26T06:45:33.501Z,2.20
2023-03-26T06:48:00.930Z,2.20
2023-03-26T06:50:28.318Z,2.10
2023-03-26T06:52:56.217Z,2.10
2023-03-26T06:55:24.182Z,2.00
2023-03-26T06:57:52.816Z,2.00
2023-03-26T07:00:21.220Z,2.00
2023-03-26T07:02:48.454Z,2.00
2023-03-26T07:05:15.785Z,2.00
2023-03-26T07:07:46.978Z,2.00
2023-03-26T07:10:15.132Z,2.00
2023-03-26T07:12:43.123Z,2.00
2023-03-26T07:15:10.806Z,2.00
2023-03-26T07:17:38.105Z,2.00
2023-03-26T07:20:07.286Z,2.90
2023-03-26T07:22:35.530Z,2.10
2023-03-26T07:25:02.846Z,2.10
2023-03-26T07:27:49.587Z,2.10
2023-03-26T07:31:00.999Z,2.10
2023-03-26T07:33:40.666Z,2.20
2023-03-26T07:36:23.590Z,2.30
2023-03-26T07:39:09.466Z,2.40
2023-03-26T07:41:52.758Z,2.50
2023-03-26T07:44:47.358Z,2.50
2023-03-26T07:47:33.922Z,2.60
2023-03-26T07:50:01.368Z,2.70
2023-03-26T07:52:29.063Z,2.60
2023-03-26T07:54:56.884Z,2.60
2023-03-26T07:57:51.314Z,2.60
2023-03-26T08:00:22.447Z,2.50
2023-03-26T08:03:12.457Z,2.50
2023-03-26T08:06:07.678Z,2.40
2023-03-26T08:08:56.231Z,2.40
2023-03-26T08:11:43.698Z,2.40
2023-03-26T08:14:35.481Z,2.40
2023-03-26T08:17:17.676Z,2.50
2023-03-26T08:19:58.174Z,2.50
2023-03-26T08:22:34.323Z,2.50
2023-03-26T08:25:19.572Z,2.50
2023-03-26T08:28:09.476Z,2.50
2023-03-26T08:30:36.805Z,2.60
2023-03-26T08:33:19.475Z,2.60
2023-03-26T08:35:47.242Z,2.60
2023-03-26T08:38:17.214Z,2.70
2023-03-26T08:41:12.233Z,2.70
2023-03-26T08:44:16.622Z,2.90
2023-03-26T08:47:07.673Z,3.00
2023-03-26T08:49:46.429Z,2.90
2023-03-26T08:52:34.441Z,2.90
2023-03-26T08:55:28.978Z,2.80
2023-03-26T08:58:05.084Z,2.70
2023-03-26T09:00:57.616Z,2.60
2023-03-26T09:03:33.666Z,2.70
2023-03-26T09:06:28.950Z,2.70
2023-03-26T09:09:04.922Z,2.80
2023-03-26T09:12:14.732Z,3.00
2023-03-26T09:15:03.571Z,3.10
2023-03-26T09:17:54.440Z,5.10
2023-03-26T09:20:41.473Z,3.20
2023-03-26T09:23:26.333Z,3.20
2023-03-26T09:25:56.222Z,3.30
2023-03-26T09:29:00.871Z,3.30
2023-03-26T09:31:33.436Z,3.20
2023-03-26T09:34:37.424Z,3.10
2023-03-26T09:37:23.868Z,3.10
2023-03-26T09:40:29.389Z,3.10
2023-03-26T09:43:18.351Z,3.20
2023-03-26T09:46:20.412Z,3.20
2023-03-26T09:49:05.582Z,3.20
2023-03-26T09:52:15.322Z,3.10
2023-03-26T09:54:51.022Z,3.20
2023-03-26T09:57:28.701Z,3.20
2023-03-26T10:00:10.576Z,3.40
2023-03-26T10:03:02.832Z,3.50
2023-03-26T10:05:29.766Z,3.60
2023-03-26T10:08:21.846Z,3.70
2023-03-26T10:11:12.563Z,3.80
2023-03-26T10:14:04.244Z,3.90
2023-03-26T10:16:38.672Z,3.90
2023-03-26T10:19:20.194Z,3.90
2023-03-26T10:22:05.740Z,3.80
2023-03-26T10:25:01.412Z,3.80
2023-03-26T10:27:49.773Z,3.70
2023-03-26T10:30:21.189Z,3.80
2023-03-26T10:33:06.910Z,3.80
2023-03-26T10:35:57.034Z,3.80
2023-03-26T10:38:40.245Z,3.70
2023-03-26T10:41:20.424Z,3.40
2023-03-26T10:44:08.870Z,3.30
2023-03-26T10:46:51.157Z,3.20
2023-03-26T10:49:49.958Z,3.20
2023-03-26T10:52:29.439Z,3.20
2023-03-26T10:55:25.058Z,3.10
2023-03-26T10:57:57.601Z,3.10
2023-03-26T11:00:27.016Z,3.00
2023-03-26T11:03:11.866Z,3.00
2023-03-26T11:06:16.258Z,2.90
2023-03-26T11:09:12.219Z,3.00
2023-03-26T11:12:26.584Z,3.00
2023-03-26T11:15:00.986Z,3.10
2023-03-26T11:17:47.881Z,3.20
2023-03-26T11:20:20.837Z,3.20
2023-03-26T11:23:13.667Z,3.20
2023-03-26T11:25:51.764Z,3.10
2023-03-26T11:29:03.891Z,3.00
2023-03-26T11:32:17.357Z,2.90
2023-03-26T11:35:04.189Z,2.80
2023-03-26T11:37:47.800Z,2.80
2023-03-26T11:40:21.561Z,2.80
2023-03-26T11:42:54.224Z,2.80
2023-03-26T11:45:26.005Z,2.80
2023-03-26T11:48:12.788Z,2.80
2023-03-26T11:50:46.530Z,2.70
2023-03-26T11:53:17.682Z,2.70
2023-03-26T11:56:03.676Z,2.80
2023-03-26T11:58:51.246Z,2.80
2023-03-26T12:01:32.496Z,2.90
2023-03-26T12:04:08.980Z,2.80
2023-03-26T12:06:36.164Z,2.80
2023-03-26T12:09:03.191Z,2.80
2023-03-26T12:11:35.426Z,2.70
2023-03-26T12:14:04.943Z,2.70
2023-03-26T12:16:31.811Z,2.70
2023-03-26T12:19:17.846Z,2.60
2023-03-26T12:21:50.102Z,2.50
2023-03-26T12:24:34.362Z,2.60
2023-03-26T12:27:20.386Z,2.50
2023-03-26T12:30:03.698Z,2.50
2023-03-26T12:32:43.210Z,2.60
2023-03-26T12:35:39.174Z,2.60
2023-03-26T12:38:33.496Z,2.60
2023-03-26T12:44:43.535Z,2.60
2023-03-26T12:44:53.471Z,2.70
2023-03-26T12:47:58.583Z,2.70
2023-03-26T12:50:14.649Z,2.70
2023-03-26T12:52:47.135Z,2.70
2023-03-26T12:55:56.573Z,2.70
2023-03-26T12:58:51.268Z,2.70
2023-03-26T13:01:33.381Z,2.60
2023-03-26T13:04:17.475Z,2.50
2023-03-26T13:07:01.845Z,2.50
2023-03-26T13:09:54.074Z,2.40
2023-03-26T13:12:31.934Z,2.40
2023-03-26T13:15:20.546Z,2.40
2023-03-26T13:18:21.655Z,2.40
2023-03-26T13:21:03.265Z,2.40
2023-03-26T13:23:29.952Z,2.30
2023-03-26T13:26:35.311Z,2.30
2023-03-26T13:29:33.294Z,2.30
2023-03-26T13:32:19.310Z,2.20
2023-03-26T13:34:49.063Z,2.10
2023-03-26T13:37:24.743Z,2.20
2023-03-26T13:40:10.324Z,1.90
2023-03-26T13:42:37.854Z,1.90
2023-03-26T13:45:20.788Z,1.80
2023-03-26T13:47:50.887Z,1.90
2023-03-26T13:50:40.885Z,1.90
2023-03-26T13:53:28.934Z,1.80
2023-03-26T13:56:00.344Z,1.70
2023-03-26T13:58:35.078Z,1.70
2023-03-26T14:01:07.737Z,1.70
2023-03-26T14:03:49.922Z,1.70
2023-03-26T14:06:57.438Z,1.80
2023-03-26T14:09:27.795Z,1.70
2023-03-26T14:11:57.866Z,1.70
2023-03-26T14:14:51.284Z,1.60
2023-03-26T14:17:21.108Z,1.60
2023-03-26T14:20:25.585Z,1.50
2023-03-26T14:23:17.010Z,1.50
2023-03-26T14:25:57.771Z,1.50
2023-03-26T14:28:47.448Z,1.50
2023-03-26T14:31:24.577Z,1.50
2023-03-26T14:34:03.500Z,1.60
2023-03-26T14:37:16.765Z,1.60
2023-03-26T14:40:02.080Z,1.50
2023-03-26T14:42:43.538Z,1.50
2023-03-26T14:45:28.897Z,1.40
2023-03-26T14:48:21.798Z,1.40
2023-03-26T14:51:26.229Z,1.30
2023-03-26T14:53:57.010Z,1.30
2023-03-26T14:56:33.351Z,1.30
2023-03-26T14:59:32.963Z,1.30
2023-03-26T15:02:45.034Z,1.20
2023-03-26T15:05:58.994Z,1.30
2023-03-26T15:08:37.697Z,1.30
2023-03-26T15:11:25.501Z,1.30
2023-03-26T15:14:27.382Z,1.40
2023-03-26T15:17:09.644Z,1.40
2023-03-26T15:20:23.097Z,1.50
2023-03-26T15:23:20.996Z,1.40
2023-03-26T15:26:18.870Z,1.40
2023-03-26T15:28:57.559Z,1.30
2023-03-26T15:31:49.553Z,1.30
2023-03-26T15:34:38.630Z,1.30
2023-03-26T15:37:34.265Z,1.30
2023-03-26T15:40:28.858Z,1.40
2023-03-26T15:43:09.395Z,1.30
2023-03-26T15:45:47.867Z,1.30
2023-03-26T15:48:25.932Z,1.30
2023-03-26T15:51:20.162Z,1.30
2023-03-26T15:54:16.504Z,1.20
2023-03-26T15:57:16.688Z,1.30
2023-03-26T16:00:00.858Z,1.30
2023-03-26T16:02:43.475Z,1.30
2023-03-26T16:05:48.055Z,1.20
2023-03-26T16:08:53.168Z,1.30
2023-03-26T16:11:50.668Z,1.20
2023-03-26T16:14:23.519Z,1.20
2023-03-26T16:16:59.396Z,1.20
2023-03-26T16:19:36.390Z,1.30
2023-03-26T16:22:07.672Z,1.30
2023-03-26T16:24:35.492Z,1.30
2023-03-26T16:27:14.351Z,1.30
2023-03-26T16:30:16.535Z,1.30
2023-03-26T16:32:48.238Z,1.20
2023-03-26T16:35:14.935Z,1.30
2023-03-26T16:37:50.755Z,1.30
2023-03-26T16:40:17.780Z,1.30
2023-03-26T16:42:53.599Z,1.40
2023-03-26T16:45:49.948Z,1.30
2023-03-26T16:48:42.956Z,1.30
2023-03-26T16:51:27.298Z,1.30
2023-03-26T16:53:57.871Z,1.30
2023-03-26T16:56:50.372Z,1.30
2023-03-26T16:59:36.711Z,1.30
2023-03-26T17:02:15.615Z,2.50
2023-03-26T17:04:48.636Z,1.20
2023-03-26T17:07:32.071Z,1.20
2023-03-26T17:10:19.921Z,1.20
2023-03-26T17:13:00.992Z,1.20
2023-03-26T17:15:30.914Z,1.20
2023-03-26T17:18:26.420Z,1.20
2023-03-26T17:21:14.667Z,1.10
2023-03-26T17:24:27.912Z,1.10
2023-03-26T17:27:16.449Z,1.20
2023-03-26T17:30:04.003Z,1.20
2023-03-26T17:33:03.720Z,1.20
2023-03-26T17:35:36.557Z,1.20
2023-03-26T17:38:08.844Z,1.20
2023-03-26T17:40:54.456Z,1.20
2023-03-26T17:43:43.814Z,1.20
2023-03-26T17:46:33.223Z,1.20
2023-03-26T17:49:12.520Z,1.10
2023-03-26T17:52:01.028Z,1.10
2023-03-26T17:54:33.118Z,1.20
2023-03-26T17:57:15.771Z,1.20
2023-03-26T17:59:45.033Z,1.10
2023-03-26T18:02:21.860Z,1.10
2023-03-26T18:04:53.889Z,1.10
2023-03-26T18:07:56.318Z,1.10
2023-03-26T18:11:01.608Z,1.00
2023-03-26T18:14:03.512Z,1.00
2023-03-26T18:16:33.429Z,1.00
2023-03-26T18:19:05.083Z,1.00
2023-03-26T18:21:38.550Z,1.00
2023-03-26T18:24:08.854Z,1.00
2023-03-26T18:26:45.493Z,0.90
2023-03-26T18:29:25.583Z,0.90
2023-03-26T18:32:26.571Z,0.90
2023-03-26T18:35:02.865Z,0.80
2023-03-26T18:37:38.957Z,0.80
2023-03-26T18:40:10.136Z,0.80
2023-03-26T18:42:37.628Z,0.80
2023-03-26T18:45:29.062Z,0.80
2023-03-26T18:48:01.245Z,0.80
2023-03-26T18:50:40.288Z,0.80
2023-03-26T18:53:15.468Z,0.80
2023-03-26T18:55:44.555Z,0.80
2023-03-26T18:58:27.536Z,0.70
2023-03-26T19:01:00.811Z,0.70
2023-03-26T19:03:32.054Z,0.70
2023-03-26T19:05:59.115Z,0.70
2023-03-26T19:08:26.455Z,0.80
2023-03-26T19:10:55.221Z,0.60
2023-03-26T19:13:23.034Z,1.80
2023-03-26T19:15:52.126Z,0.50
2023-03-26T19:18:22.584Z,0.50
2023-03-26T19:21:00.706Z,0.50
2023-03-26T19:23:33.045Z,0.50
2023-03-26T19:26:02.512Z,0.50
2023-03-26T19:28:41.971Z,0.40
2023-03-26T19:31:10.665Z,0.40
2023-03-26T19:33:40.497Z,0.40
2023-03-26T19:36:13.617Z,0.40
2023-03-26T19:38:52.640Z,0.40
2023-03-26T19:41:25.648Z,0.40
2023-03-26T19:43:59.482Z,0.40
2023-03-26T19:46:28.657Z,0.30
2023-03-26T19:48:57.680Z,0.30
2023-03-26T19:51:36.278Z,0.30
2023-03-26T19:54:13.911Z,0.40
2023-03-26T19:56:40.678Z,0.40
2023-03-26T19:59:07.712Z,0.30
2023-03-26T20:01:34.658Z,0.30
2023-03-26T20:04:05.088Z,0.40
2023-03-26T20:06:42.477Z,0.40
2023-03-26T20:09:11.790Z,0.40
2023-03-26T20:11:39.957Z,0.40
2023-03-26T20:14:15.831Z,0.30
2023-03-26T20:16:45.289Z,0.30
2023-03-26T20:19:14.566Z,0.30
2023-03-26T20:21:41.866Z,0.30
2023-03-26T20:24:17.910Z,0.60
2023-03-26T20:26:45.959Z,0.40
2023-03-26T20:29:14.161Z,0.50
2023-03-26T20:31:42.490Z,0.50
2023-03-26T20:34:22.043Z,0.50
2023-03-26T20:36:55.059Z,0.40
2023-03-26T20:39:24.110Z,0.40
2023-03-26T20:41:52.723Z,0.30
2023-03-26T20:44:22.043Z,0.30
2023-03-26T20:46:50.010Z,0.30
2023-03-26T20:49:18.202Z,0.70
2023-03-26T20:51:46.939Z,0.40
2023-03-26T20:54:17.732Z,0.40
2023-03-26T20:56:45.823Z,0.40
2023-03-26T20:59:21.726Z,0.40
2023-03-26T21:01:50.060Z,0.40
2023-03-26T21:04:17.856Z,1.80
2023-03-26T21:06:45.350Z,0.40
2023-03-26T21:09:18.718Z,0.30
2023-03-26T21:11:57.178Z,0.40
2023-03-26T21:14:41.605Z,0.30
2023-03-26T21:17:17.590Z,0.30
2023-03-26T21:19:45.612Z,0.30
2023-03-26T21:22:30.420Z,0.30
2023-03-26T21:25:12.903Z,0.30
2023-03-26T21:27:58.471Z,0.30
2023-03-26T21:30:25.992Z,0.30
2023-03-26T21:32:52.965Z,0.30
2023-03-26T21:35:20.653Z,1.50
2023-03-26T21:37:50.935Z,0.30
2023-03-26T21:40:19.686Z,0.30
2023-03-26T21:42:49.180Z,0.30
2023-03-26T21:45:17.532Z,0.30
2023-03-26T21:47:46.355Z,0.40
2023-03-26T21:50:19.489Z,0.50
2023-03-26T21:52:49.368Z,0.50
2023-03-26T21:55:22.143Z,0.40
2023-03-26T21:58:19.838Z,0.50
2023-03-26T22:00:46.585Z,0.40
2023-03-26T22:03:24.820Z,0.40
2023-03-26T22:06:13.629Z,0.40
2023-03-26T22:08:42.209Z,0.30
2023-03-26T22:11:11.415Z,0.30
2023-03-26T22:13:39.109Z,0.20
2023-03-26T22:16:08.738Z,0.20
2023-03-26T22:18:35.752Z,0.10
2023-03-26T22:21:03.602Z,0.00
2023-03-26T22:23:34.447Z,-0.10
2023-03-26T22:26:01.856Z,-0.10
2023-03-26T22:28:29.779Z,-0.10
2023-03-26T22:30:57.433Z,-0.10
2023-03-26T22:33:24.685Z,-0.20
2023-03-26T22:35:52.695Z,-0.20
2023-03-26T22:38:19.845Z,-0.20
2023-03-26T22:40:56.091Z,-0.10
2023-03-26T22:43:23.679Z,-0.20
2023-03-26T22:45:51.445Z,-0.20
2023-03-26T22:48:18.654Z,-0.20
2023-03-26T22:50:46.466Z,-0.30
2023-03-26T22:53:13.794Z,-0.30
2023-03-26T22:55:40.929Z,-0.40
2023-03-26T22:58:08.241Z,-0.50
2023-03-26T23:00:36.526Z,-0.50
2023-03-26T23:03:04.895Z,-0.60
2023-03-26T23:05:31.996Z,-0.60
2023-03-26T23:07:59.404Z,-0.70
2023-03-26T23:10:26.765Z,-0.80
2023-03-26T23:12:53.858Z,-0.90
2023-03-26T23:15:21.072Z,-0.90
2023-03-26T23:17:54.112Z,-1.00
2023-03-26T23:20:22.312Z,-1.00
2023-03-26T23:22:49.579Z,-1.10
2023-03-26T23:25:16.627Z,-1.10
2023-03-26T23:27:43.790Z,-1.10
2023-03-26T23:30:11.617Z,-1.10
2023-03-26T23:32:38.760Z,-1.10
2023-03-26T23:35:06.482Z,-1.10
2023-03-26T23:37:35.206Z,-1.20
2023-03-26T23:40:07.649Z,-1.20
2023-03-26T23:42:34.691Z,-1.20
2023-03-26T23:45:02.076Z,-1.20
2023-03-26T23:47:34.597Z,-1.20
2023-03-26T23:50:04.975Z,-1.20
2023-03-26T23:52:32.246Z,-1.20
2023-03-26T23:55:02.414Z,-1.20
2023-03-26T23:57:30.578Z,-1.30
2023-03-26T23:59:58.028Z,-1.40
